CAL4101 ZUUU-ZBAA
Flight info
| Callsign | CAL4101 |
|---|---|
| Flight time | N/A |
| Altitude | 41100 |
| Route | GURET9W GURET W233 AGULU W81 APIMI W275 NSH G212 AMVOG W61 NUDKU W56 DUGEB DUGEB5D |
| Aircraft | A359/H-SDE2E3GHIJ3J4J5LM1ORWXY/LB1D1 |
Departure
| Time | N/A |
|---|---|
| Airport | Chengdu Shuangliu International Airport (ZUUU) |
Arrival
| Time | 2026-05-06 02:28 |
|---|---|
| Airport | Beijing Capital International Airport (ZBAA) |
| Time | Latitude | Longitude | Altitude | Speed | Heading |
|---|---|---|---|---|---|
| 2026-05-06 01:54 | 38.15070 | 114.00633 | 37751 ft | 580 kts | 59° |
| 2026-05-06 01:54 | 38.16834 | 114.05244 | 37743 ft | 580 kts | 59° |
| 2026-05-06 01:54 | 38.20358 | 114.14473 | 37745 ft | 581 kts | 59° |
| 2026-05-06 01:55 | 38.24467 | 114.25217 | 37747 ft | 582 kts | 59° |
| 2026-05-06 01:55 | 38.27435 | 114.32988 | 37742 ft | 583 kts | 59° |
| 2026-05-06 01:56 | 38.30973 | 114.42285 | 37737 ft | 585 kts | 60° |
| 2026-05-06 01:56 | 38.34515 | 114.51629 | 37736 ft | 586 kts | 60° |
| 2026-05-06 01:57 | 38.38057 | 114.61004 | 37718 ft | 588 kts | 60° |
| 2026-05-06 01:57 | 38.41044 | 114.70729 | 37729 ft | 597 kts | 77° |
| 2026-05-06 01:58 | 38.41417 | 114.75940 | 37726 ft | 597 kts | 92° |
| 2026-05-06 01:58 | 38.41034 | 114.81191 | 37726 ft | 595 kts | 101° |
| 2026-05-06 01:58 | 38.39590 | 114.89713 | 37734 ft | 594 kts | 108° |
| 2026-05-06 01:59 | 38.37440 | 114.99883 | 37733 ft | 595 kts | 108° |
| 2026-05-06 01:59 | 38.35378 | 115.10100 | 37740 ft | 596 kts | 106° |
| 2026-05-06 02:00 | 38.33442 | 115.20367 | 37754 ft | 596 kts | 105° |
| 2026-05-06 02:00 | 38.32505 | 115.25449 | 37517 ft | 578 kts | 105° |
| 2026-05-06 02:00 | 38.31603 | 115.30362 | 36650 ft | 564 kts | 105° |
| 2026-05-06 02:01 | 38.30712 | 115.35210 | 35228 ft | 561 kts | 105° |
| 2026-05-06 02:01 | 38.30145 | 115.40116 | 33974 ft | 557 kts | 94° |
| 2026-05-06 02:01 | 38.30217 | 115.44987 | 33194 ft | 548 kts | 83° |
| 2026-05-06 02:01 | 38.30957 | 115.49643 | 33118 ft | 537 kts | 71° |
| 2026-05-06 02:02 | 38.32297 | 115.54014 | 33124 ft | 525 kts | 60° |
| 2026-05-06 02:02 | 38.34186 | 115.57912 | 33135 ft | 510 kts | 48° |
| 2026-05-06 02:02 | 38.36527 | 115.61200 | 33139 ft | 494 kts | 35° |
| 2026-05-06 02:02 | 38.39249 | 115.63725 | 33163 ft | 477 kts | 24° |
| 2026-05-06 02:03 | 38.44955 | 115.67956 | 32597 ft | 475 kts | 22° |
| 2026-05-06 02:03 | 38.47844 | 115.70071 | 31632 ft | 483 kts | 23° |
| 2026-05-06 02:03 | 38.50784 | 115.72231 | 30652 ft | 492 kts | 24° |
| 2026-05-06 02:04 | 38.53773 | 115.74436 | 29667 ft | 501 kts | 24° |
| 2026-05-06 02:04 | 38.56806 | 115.76681 | 28560 ft | 508 kts | 25° |
| 2026-05-06 02:04 | 38.59905 | 115.78978 | 27756 ft | 519 kts | 25° |
| 2026-05-06 02:04 | 38.63038 | 115.81307 | 27290 ft | 521 kts | 25° |
| 2026-05-06 02:05 | 38.66152 | 115.83630 | 27132 ft | 517 kts | 25° |
| 2026-05-06 02:05 | 38.69256 | 115.85946 | 27066 ft | 516 kts | 25° |
| 2026-05-06 02:05 | 38.72352 | 115.88255 | 26991 ft | 514 kts | 25° |
| 2026-05-06 02:05 | 38.75439 | 115.90559 | 26919 ft | 513 kts | 25° |
| 2026-05-06 02:06 | 38.78522 | 115.92861 | 26844 ft | 512 kts | 25° |
| 2026-05-06 02:06 | 38.81593 | 115.95157 | 26775 ft | 511 kts | 25° |
| 2026-05-06 02:06 | 38.84668 | 115.97458 | 26703 ft | 510 kts | 25° |
| 2026-05-06 02:06 | 38.87731 | 115.99752 | 26628 ft | 509 kts | 25° |
| 2026-05-06 02:07 | 38.90765 | 116.02029 | 26172 ft | 500 kts | 25° |
| 2026-05-06 02:07 | 38.93701 | 116.04241 | 25136 ft | 481 kts | 25° |
| 2026-05-06 02:07 | 38.96566 | 116.06394 | 23653 ft | 475 kts | 25° |
| 2026-05-06 02:07 | 38.99403 | 116.08523 | 22048 ft | 468 kts | 25° |
| 2026-05-06 02:08 | 39.02184 | 116.10616 | 20562 ft | 458 kts | 26° |
| 2026-05-06 02:08 | 39.04898 | 116.12662 | 19167 ft | 447 kts | 26° |
| 2026-05-06 02:08 | 39.07556 | 116.14666 | 18010 ft | 439 kts | 26° |
| 2026-05-06 02:08 | 39.10190 | 116.16649 | 17213 ft | 439 kts | 26° |
| 2026-05-06 02:09 | 39.12825 | 116.18633 | 16842 ft | 440 kts | 26° |
| 2026-05-06 02:09 | 39.15452 | 116.20618 | 16505 ft | 433 kts | 27° |
| 2026-05-06 02:09 | 39.18033 | 116.22571 | 15811 ft | 429 kts | 27° |
| 2026-05-06 02:09 | 39.20599 | 116.24510 | 15102 ft | 427 kts | 27° |
| 2026-05-06 02:10 | 39.23160 | 116.26450 | 14429 ft | 424 kts | 28° |
| 2026-05-06 02:10 | 39.25694 | 116.28370 | 13747 ft | 422 kts | 28° |
| 2026-05-06 02:10 | 39.28173 | 116.30254 | 12936 ft | 406 kts | 29° |
| 2026-05-06 02:10 | 39.30552 | 116.32067 | 12070 ft | 387 kts | 29° |
| 2026-05-06 02:11 | 39.32785 | 116.33772 | 11621 ft | 360 kts | 29° |
| 2026-05-06 02:11 | 39.34867 | 116.35360 | 11243 ft | 335 kts | 29° |
| 2026-05-06 02:11 | 39.36826 | 116.36852 | 10719 ft | 321 kts | 29° |
| 2026-05-06 02:11 | 39.38720 | 116.38295 | 10248 ft | 312 kts | 29° |
| 2026-05-06 02:12 | 39.40588 | 116.39716 | 10031 ft | 312 kts | 29° |
| 2026-05-06 02:12 | 39.42400 | 116.41099 | 9999 ft | 288 kts | 29° |
| 2026-05-06 02:12 | 39.44003 | 116.42326 | 10001 ft | 262 kts | 28° |
| 2026-05-06 02:12 | 39.45572 | 116.43525 | 10005 ft | 255 kts | 28° |
| 2026-05-06 02:13 | 39.47101 | 116.44692 | 9989 ft | 255 kts | 28° |
| 2026-05-06 02:13 | 39.48562 | 116.45931 | 9965 ft | 247 kts | 34° |
| 2026-05-06 02:13 | 39.49927 | 116.47216 | 9842 ft | 240 kts | 35° |
| 2026-05-06 02:13 | 39.51264 | 116.48493 | 9630 ft | 238 kts | 34° |
| 2026-05-06 02:14 | 39.52592 | 116.49760 | 9401 ft | 237 kts | 34° |
| 2026-05-06 02:14 | 39.53913 | 116.51022 | 9168 ft | 234 kts | 34° |
| 2026-05-06 02:14 | 39.55222 | 116.52271 | 8605 ft | 239 kts | 34° |
| 2026-05-06 02:14 | 39.56577 | 116.53564 | 8074 ft | 240 kts | 33° |
| 2026-05-06 02:15 | 39.57899 | 116.54831 | 7706 ft | 233 kts | 33° |
| 2026-05-06 02:15 | 39.59186 | 116.56060 | 7313 ft | 227 kts | 33° |
| 2026-05-06 02:15 | 39.60439 | 116.57256 | 6966 ft | 221 kts | 33° |
| 2026-05-06 02:15 | 39.61664 | 116.58423 | 6605 ft | 216 kts | 32° |
| 2026-05-06 02:16 | 39.62863 | 116.59568 | 6218 ft | 213 kts | 33° |
| 2026-05-06 02:16 | 39.64042 | 116.60696 | 6001 ft | 208 kts | 33° |
| 2026-05-06 02:16 | 39.65159 | 116.61765 | 6042 ft | 191 kts | 33° |
| 2026-05-06 02:16 | 39.66201 | 116.62710 | 6008 ft | 176 kts | 27° |
| 2026-05-06 02:17 | 39.67265 | 116.63302 | 5997 ft | 157 kts | 13° |
| 2026-05-06 02:17 | 39.68319 | 116.63480 | 6003 ft | 152 kts | 359° |
| 2026-05-06 02:17 | 39.69336 | 116.63383 | 5822 ft | 147 kts | 353° |
| 2026-05-06 02:17 | 39.70359 | 116.63218 | 5556 ft | 148 kts | 353° |
| 2026-05-06 02:18 | 39.71396 | 116.63069 | 5428 ft | 149 kts | 354° |
| 2026-05-06 02:18 | 39.72429 | 116.62917 | 5422 ft | 149 kts | 353° |
| 2026-05-06 02:18 | 39.73454 | 116.62754 | 5436 ft | 148 kts | 352° |
| 2026-05-06 02:18 | 39.74479 | 116.62592 | 5435 ft | 149 kts | 353° |
| 2026-05-06 02:19 | 39.75491 | 116.62434 | 5434 ft | 148 kts | 354° |
| 2026-05-06 02:19 | 39.76504 | 116.62275 | 5271 ft | 146 kts | 354° |
| 2026-05-06 02:19 | 39.77492 | 116.62117 | 5068 ft | 140 kts | 353° |
| 2026-05-06 02:19 | 39.78424 | 116.61959 | 4924 ft | 128 kts | 352° |
| 2026-05-06 02:20 | 39.80220 | 116.61682 | 4146 ft | 134 kts | 354° |
| 2026-05-06 02:20 | 39.81162 | 116.61532 | 3921 ft | 138 kts | 353° |
| 2026-05-06 02:20 | 39.82117 | 116.61382 | 3808 ft | 135 kts | 353° |
| 2026-05-06 02:21 | 39.83064 | 116.61245 | 3396 ft | 140 kts | 354° |
| 2026-05-06 02:21 | 39.84058 | 116.61091 | 2973 ft | 147 kts | 354° |
| 2026-05-06 02:21 | 39.85037 | 116.60940 | 2795 ft | 138 kts | 354° |
| 2026-05-06 02:21 | 39.85937 | 116.60795 | 2929 ft | 124 kts | 353° |
| 2026-05-06 02:22 | 39.86797 | 116.60662 | 3032 ft | 126 kts | 356° |
| 2026-05-06 02:22 | 39.87635 | 116.60523 | 3128 ft | 120 kts | 354° |
| 2026-05-06 02:22 | 39.88481 | 116.60373 | 3079 ft | 126 kts | 352° |
| 2026-05-06 02:22 | 39.89367 | 116.60174 | 3062 ft | 131 kts | 350° |
| 2026-05-06 02:23 | 39.90289 | 116.59989 | 3020 ft | 137 kts | 355° |
| 2026-05-06 02:23 | 39.91247 | 116.59867 | 2995 ft | 140 kts | 355° |
| 2026-05-06 02:23 | 39.92226 | 116.59765 | 2965 ft | 142 kts | 356° |
| 2026-05-06 02:23 | 39.93221 | 116.59673 | 2952 ft | 144 kts | 358° |
| 2026-05-06 02:24 | 39.94228 | 116.59604 | 2953 ft | 147 kts | 356° |
| 2026-05-06 02:24 | 39.95246 | 116.59410 | 2988 ft | 149 kts | 351° |
| 2026-05-06 02:24 | 39.96258 | 116.59125 | 3042 ft | 149 kts | 348° |
| 2026-05-06 02:24 | 39.97273 | 116.58857 | 3006 ft | 150 kts | 352° |
| 2026-05-06 02:25 | 39.98310 | 116.58658 | 2954 ft | 151 kts | 355° |
| 2026-05-06 02:25 | 39.99356 | 116.58503 | 2853 ft | 153 kts | 356° |
| 2026-05-06 02:25 | 40.00421 | 116.58375 | 2617 ft | 151 kts | 355° |
| 2026-05-06 02:25 | 40.01422 | 116.58230 | 2381 ft | 140 kts | 355° |
| 2026-05-06 02:26 | 40.02383 | 116.58116 | 2053 ft | 139 kts | 355° |
| 2026-05-06 02:26 | 40.03343 | 116.57995 | 1637 ft | 139 kts | 355° |
| 2026-05-06 02:26 | 40.04325 | 116.57888 | 1232 ft | 144 kts | 354° |
| 2026-05-06 02:26 | 40.05348 | 116.57738 | 794 ft | 151 kts | 352° |
| 2026-05-06 02:27 | 40.06388 | 116.57563 | 459 ft | 152 kts | 353° |
| 2026-05-06 02:27 | 40.07423 | 116.57404 | 179 ft | 145 kts | 355° |
| 2026-05-06 02:27 | 40.08337 | 116.57268 | 129 ft | 107 kts | 353° |
| 2026-05-06 02:27 | 40.08861 | 116.57185 | 128 ft | 53 kts | 352° |
| 2026-05-06 02:28 | 40.09205 | 116.57189 | 128 ft | 44 kts | 17° |
| 2026-05-06 02:28 | 40.09307 | 116.57236 | 128 ft | 10 kts | 20° |
| 2026-05-06 02:28 | 40.09338 | 116.57289 | 126 ft | 4 kts | 79° |
| 2026-05-06 02:28 | 40.09324 | 116.57323 | 127 ft | 5 kts | 131° |
| 2026-05-06 02:29 | 40.09285 | 116.57342 | 128 ft | 9 kts | 171° |
| 2026-05-06 02:29 | 40.09166 | 116.57363 | 128 ft | 25 kts | 174° |
| 2026-05-06 02:29 | 40.08954 | 116.57395 | 128 ft | 37 kts | 173° |
| 2026-05-06 02:29 | 40.08685 | 116.57437 | 126 ft | 24 kts | 173° |
| 2026-05-06 02:30 | 40.08555 | 116.57457 | 126 ft | 26 kts | 173° |
| 2026-05-06 02:30 | 40.08426 | 116.57512 | 126 ft | 10 kts | 115° |
| 2026-05-06 02:30 | 40.08430 | 116.57646 | 128 ft | 22 kts | 84° |
| 2026-05-06 02:30 | 40.08411 | 116.57860 | 127 ft | 26 kts | 94° |
| 2026-05-06 02:31 | 40.08421 | 116.58012 | 128 ft | 4 kts | 83° |
| 2026-05-06 02:31 | 40.08431 | 116.58122 | 128 ft | 20 kts | 83° |
| 2026-05-06 02:31 | 40.08453 | 116.58244 | 125 ft | 4 kts | 40° |
| 2026-05-06 02:31 | 40.08488 | 116.58250 | 126 ft | 7 kts | 358° |
| 2026-05-06 02:32 | 40.08503 | 116.58248 | 126 ft | 2 kts | 355° |
| 2026-05-06 02:32 | 40.08516 | 116.58247 | 128 ft | 0 kts | 354° |